Main page
METAR-TAF:

METAR-TAF

Airports :

Maastricht Aachen, Netherlands

Maastricht Aachen Airport

latitude: 50-55N, longitude: 005-47E, elevation: 114 m

Current weather observation

The report was made 39 minutes ago, at 23:25 UTC
Wind 10 kt from the Northeast
Temperature -2°C
Humidity 74%
Pressure 1021 hPa
Visibility 10 km or more

METAR: EHBK 222325Z AUTO 05010KT 9999 NCD M02/M06 Q1021

Time: 01:04 (00:04 UTC)

Forecast

The report was made 1 hour and 10 minutes ago, at 22:54 UTC
Forecast valid from 23 at 00 UTC to 24 at 06 UTC
Wind 12 kt from the Northeast
Visibility 10 km or more
no clouds below 1500 m and no cumulonimbus

TAF: EHBK 222254Z 2300/2406 05012KT CAVOK

Weather observations and forecasts of more than 4000 airports (METAR and TAF reports).

The available stations are represented by yellow and red dots on the map.

Hover mouse over dot to see the name of the station.

Then click to see weather observations and forecasts.

To change the map : click on the green buttons with a black cross to zoom in, on the green button with a dash to zoom out, or on the green arrows for adjacent maps.


METAR-TAF: